Clearwater, Florida
Current Conditions -  °F | °C
As of 4:35 PM on Saturday 22 Nov 2014 (Local Time) from KCLW Reporting Station
Overcast Overcast  
Wind Chill: 72°   Ceiling: 3600
Heat Index: 72°   Visibility: 10mi
Dew Point: 64°   Wind: 8mph
Humidity: 78%   Direction: 90°E
Pressure: 30.08"   Gusts: 18mph
Location:  27.97°N, 82.8°W
Report Text: KCLW 222135Z AUTO 09007G16KT 10SM BKN036 OVC043 22/18 A3008 RMK AO2
Loading
Personal Weather Stations






























Interactive Weather Map New forecast layout! Learn more

10-Day Weather Forecast

Advertisements
Track Severe Weather on mobile